sensor_id;sensor_type;location;lat;lon;timestamp;P1;durP1;ratioP1;P2;durP2;ratioP2
3006;SDS011;1513;47.650;10.720;2023-09-12T00:00:57;21.20;;;12.60;;
3006;SDS011;1513;47.650;10.720;2023-09-12T00:03:23;16.07;;;11.27;;
3006;SDS011;1513;47.650;10.720;2023-09-12T00:05:53;17.70;;;11.40;;
3006;SDS011;1513;47.650;10.720;2023-09-12T00:08:24;20.07;;;12.30;;
3006;SDS011;1513;47.650;10.720;2023-09-12T00:11:06;21.03;;;12.00;;
3006;SDS011;1513;47.650;10.720;2023-09-12T00:13:36;20.50;;;13.00;;
3006;SDS011;1513;47.650;10.720;2023-09-12T00:16:04;17.07;;;11.50;;
3006;SDS011;1513;47.650;10.720;2023-09-12T00:18:30;17.97;;;11.40;;
3006;SDS011;1513;47.650;10.720;2023-09-12T00:20:59;17.27;;;11.67;;
3006;SDS011;1513;47.650;10.720;2023-09-12T00:23:26;18.23;;;10.60;;
3006;SDS011;1513;47.650;10.720;2023-09-12T00:25:52;17.63;;;11.07;;
3006;SDS011;1513;47.650;10.720;2023-09-12T00:28:19;22.20;;;10.80;;
3006;SDS011;1513;47.650;10.720;2023-09-12T00:30:46;15.97;;;9.90;;
3006;SDS011;1513;47.650;10.720;2023-09-12T00:33:12;15.70;;;11.00;;
3006;SDS011;1513;47.650;10.720;2023-09-12T00:35:39;15.27;;;10.53;;
3006;SDS011;1513;47.650;10.720;2023-09-12T00:38:05;18.40;;;10.63;;
3006;SDS011;1513;47.650;10.720;2023-09-12T00:40:32;15.97;;;10.40;;
3006;SDS011;1513;47.650;10.720;2023-09-12T00:42:58;17.90;;;11.10;;
3006;SDS011;1513;47.650;10.720;2023-09-12T00:45:25;13.33;;;10.40;;
3006;SDS011;1513;47.650;10.720;2023-09-12T00:47:51;14.67;;;10.80;;
3006;SDS011;1513;47.650;10.720;2023-09-12T00:50:19;23.47;;;12.80;;
3006;SDS011;1513;47.650;10.720;2023-09-12T00:52:47;16.50;;;10.70;;
3006;SDS011;1513;47.650;10.720;2023-09-12T00:55:14;14.90;;;9.10;;
3006;SDS011;1513;47.650;10.720;2023-09-12T00:57:40;15.03;;;9.90;;
3006;SDS011;1513;47.650;10.720;2023-09-12T01:00:07;15.73;;;11.00;;
3006;SDS011;1513;47.650;10.720;2023-09-12T01:02:38;17.40;;;11.30;;
3006;SDS011;1513;47.650;10.720;2023-09-12T01:05:06;19.80;;;10.20;;
3006;SDS011;1513;47.650;10.720;2023-09-12T01:07:34;17.63;;;11.10;;
3006;SDS011;1513;47.650;10.720;2023-09-12T01:10:03;15.80;;;10.73;;
3006;SDS011;1513;47.650;10.720;2023-09-12T01:12:31;18.03;;;11.17;;
3006;SDS011;1513;47.650;10.720;2023-09-12T01:14:57;13.70;;;10.37;;
3006;SDS011;1513;47.650;10.720;2023-09-12T01:17:24;18.03;;;11.77;;
3006;SDS011;1513;47.650;10.720;2023-09-12T01:19:51;16.93;;;11.63;;
3006;SDS011;1513;47.650;10.720;2023-09-12T01:28:11;21.13;;;13.50;;
3006;SDS011;1513;47.650;10.720;2023-09-12T01:30:39;19.73;;;12.73;;
3006;SDS011;1513;47.650;10.720;2023-09-12T01:33:07;20.90;;;12.63;;
3006;SDS011;1513;47.650;10.720;2023-09-12T01:35:33;19.00;;;12.83;;
3006;SDS011;1513;47.650;10.720;2023-09-12T01:38:00;19.33;;;12.23;;
3006;SDS011;1513;47.650;10.720;2023-09-12T01:40:39;18.33;;;12.00;;
3006;SDS011;1513;47.650;10.720;2023-09-12T01:43:11;22.13;;;12.83;;
3006;SDS011;1513;47.650;10.720;2023-09-12T01:45:39;21.93;;;12.87;;
3006;SDS011;1513;47.650;10.720;2023-09-12T01:48:06;21.40;;;12.63;;
3006;SDS011;1513;47.650;10.720;2023-09-12T01:50:32;20.67;;;12.47;;
3006;SDS011;1513;47.650;10.720;2023-09-12T01:53:00;21.70;;;13.90;;
3006;SDS011;1513;47.650;10.720;2023-09-12T01:55:26;19.47;;;13.03;;
3006;SDS011;1513;47.650;10.720;2023-09-12T01:57:53;20.87;;;12.13;;
3006;SDS011;1513;47.650;10.720;2023-09-12T02:00:21;26.90;;;14.07;;
3006;SDS011;1513;47.650;10.720;2023-09-12T02:02:47;20.67;;;12.83;;
3006;SDS011;1513;47.650;10.720;2023-09-12T02:05:18;20.37;;;12.50;;
3006;SDS011;1513;47.650;10.720;2023-09-12T02:07:46;21.27;;;13.07;;
3006;SDS011;1513;47.650;10.720;2023-09-12T02:10:13;19.13;;;12.67;;
3006;SDS011;1513;47.650;10.720;2023-09-12T02:12:40;20.10;;;13.13;;
3006;SDS011;1513;47.650;10.720;2023-09-12T02:15:07;18.53;;;12.20;;
3006;SDS011;1513;47.650;10.720;2023-09-12T02:17:33;21.73;;;14.07;;
3006;SDS011;1513;47.650;10.720;2023-09-12T02:20:00;21.30;;;13.33;;
3006;SDS011;1513;47.650;10.720;2023-09-12T02:22:26;19.17;;;12.40;;
3006;SDS011;1513;47.650;10.720;2023-09-12T02:24:52;18.63;;;12.50;;
3006;SDS011;1513;47.650;10.720;2023-09-12T02:27:19;19.30;;;13.20;;
3006;SDS011;1513;47.650;10.720;2023-09-12T02:29:45;20.87;;;13.10;;
3006;SDS011;1513;47.650;10.720;2023-09-12T02:32:11;21.47;;;13.00;;
3006;SDS011;1513;47.650;10.720;2023-09-12T02:34:38;22.63;;;13.20;;
3006;SDS011;1513;47.650;10.720;2023-09-12T02:37:04;19.90;;;12.30;;
3006;SDS011;1513;47.650;10.720;2023-09-12T02:39:31;19.07;;;12.80;;
3006;SDS011;1513;47.650;10.720;2023-09-12T02:41:57;18.40;;;12.70;;
3006;SDS011;1513;47.650;10.720;2023-09-12T02:44:24;18.03;;;13.33;;
3006;SDS011;1513;47.650;10.720;2023-09-12T02:46:50;21.30;;;13.03;;
3006;SDS011;1513;47.650;10.720;2023-09-12T02:49:17;22.90;;;13.17;;
3006;SDS011;1513;47.650;10.720;2023-09-12T02:51:44;21.77;;;13.97;;
3006;SDS011;1513;47.650;10.720;2023-09-12T02:54:11;21.20;;;13.80;;
3006;SDS011;1513;47.650;10.720;2023-09-12T02:56:38;21.03;;;13.60;;
3006;SDS011;1513;47.650;10.720;2023-09-12T02:59:04;24.43;;;14.47;;
3006;SDS011;1513;47.650;10.720;2023-09-12T03:01:31;20.47;;;12.77;;
3006;SDS011;1513;47.650;10.720;2023-09-12T03:03:57;26.20;;;13.87;;
3006;SDS011;1513;47.650;10.720;2023-09-12T03:06:25;19.80;;;12.63;;
3006;SDS011;1513;47.650;10.720;2023-09-12T03:08:51;20.03;;;13.30;;
3006;SDS011;1513;47.650;10.720;2023-09-12T03:11:18;17.90;;;12.80;;
3006;SDS011;1513;47.650;10.720;2023-09-12T03:13:44;17.17;;;12.60;;
3006;SDS011;1513;47.650;10.720;2023-09-12T03:16:11;16.83;;;12.07;;
3006;SDS011;1513;47.650;10.720;2023-09-12T03:18:38;17.33;;;11.80;;
3006;SDS011;1513;47.650;10.720;2023-09-12T03:21:05;16.90;;;12.00;;
3006;SDS011;1513;47.650;10.720;2023-09-12T03:23:31;17.53;;;12.67;;
3006;SDS011;1513;47.650;10.720;2023-09-12T03:26:05;19.17;;;12.87;;
3006;SDS011;1513;47.650;10.720;2023-09-12T03:28:32;16.23;;;11.33;;
3006;SDS011;1513;47.650;10.720;2023-09-12T03:31:06;17.67;;;12.50;;
3006;SDS011;1513;47.650;10.720;2023-09-12T03:33:34;18.30;;;11.43;;
3006;SDS011;1513;47.650;10.720;2023-09-12T03:36:00;20.80;;;13.63;;
3006;SDS011;1513;47.650;10.720;2023-09-12T03:38:27;23.57;;;12.70;;
3006;SDS011;1513;47.650;10.720;2023-09-12T03:40:53;16.57;;;11.53;;
3006;SDS011;1513;47.650;10.720;2023-09-12T03:43:20;18.50;;;12.43;;
3006;SDS011;1513;47.650;10.720;2023-09-12T03:45:46;18.60;;;12.97;;
3006;SDS011;1513;47.650;10.720;2023-09-12T03:48:13;17.20;;;11.73;;
3006;SDS011;1513;47.650;10.720;2023-09-12T03:50:40;19.80;;;12.43;;
3006;SDS011;1513;47.650;10.720;2023-09-12T03:53:06;18.63;;;12.60;;
3006;SDS011;1513;47.650;10.720;2023-09-12T03:55:33;17.03;;;12.10;;
3006;SDS011;1513;47.650;10.720;2023-09-12T03:57:59;17.53;;;12.30;;
3006;SDS011;1513;47.650;10.720;2023-09-12T04:00:26;17.57;;;11.93;;
3006;SDS011;1513;47.650;10.720;2023-09-12T04:02:52;22.17;;;14.03;;
3006;SDS011;1513;47.650;10.720;2023-09-12T04:05:19;19.33;;;13.30;;
3006;SDS011;1513;47.650;10.720;2023-09-12T04:07:45;20.30;;;13.13;;
3006;SDS011;1513;47.650;10.720;2023-09-12T04:10:12;22.17;;;13.73;;
3006;SDS011;1513;47.650;10.720;2023-09-12T04:12:38;26.37;;;16.60;;
3006;SDS011;1513;47.650;10.720;2023-09-12T04:15:05;21.57;;;15.00;;
3006;SDS011;1513;47.650;10.720;2023-09-12T04:17:32;20.47;;;14.70;;
3006;SDS011;1513;47.650;10.720;2023-09-12T04:19:58;23.00;;;15.27;;
3006;SDS011;1513;47.650;10.720;2023-09-12T04:22:25;23.10;;;15.17;;
3006;SDS011;1513;47.650;10.720;2023-09-12T04:24:51;21.73;;;15.00;;
3006;SDS011;1513;47.650;10.720;2023-09-12T04:27:17;24.43;;;15.53;;
3006;SDS011;1513;47.650;10.720;2023-09-12T04:29:44;24.80;;;15.57;;
3006;SDS011;1513;47.650;10.720;2023-09-12T04:32:10;20.93;;;14.13;;
3006;SDS011;1513;47.650;10.720;2023-09-12T04:34:37;21.97;;;14.80;;
3006;SDS011;1513;47.650;10.720;2023-09-12T04:37:03;23.10;;;14.23;;
3006;SDS011;1513;47.650;10.720;2023-09-12T04:39:31;19.93;;;13.10;;
3006;SDS011;1513;47.650;10.720;2023-09-12T04:41:57;18.87;;;13.20;;
3006;SDS011;1513;47.650;10.720;2023-09-12T04:44:24;22.70;;;14.23;;
3006;SDS011;1513;47.650;10.720;2023-09-12T04:46:51;21.60;;;12.73;;
3006;SDS011;1513;47.650;10.720;2023-09-12T04:49:17;9.20;;;7.20;;
3006;SDS011;1513;47.650;10.720;2023-09-12T04:51:43;14.67;;;10.20;;
3006;SDS011;1513;47.650;10.720;2023-09-12T04:54:10;20.60;;;10.97;;
3006;SDS011;1513;47.650;10.720;2023-09-12T04:56:36;19.33;;;11.90;;
3006;SDS011;1513;47.650;10.720;2023-09-12T04:59:03;15.20;;;10.30;;
3006;SDS011;1513;47.650;10.720;2023-09-12T05:01:29;15.70;;;10.50;;
3006;SDS011;1513;47.650;10.720;2023-09-12T05:03:55;17.47;;;11.77;;
3006;SDS011;1513;47.650;10.720;2023-09-12T05:06:22;17.10;;;11.20;;
3006;SDS011;1513;47.650;10.720;2023-09-12T05:08:48;15.37;;;11.10;;
3006;SDS011;1513;47.650;10.720;2023-09-12T05:11:15;17.23;;;10.77;;
3006;SDS011;1513;47.650;10.720;2023-09-12T05:13:42;20.70;;;13.67;;
3006;SDS011;1513;47.650;10.720;2023-09-12T05:16:08;19.63;;;12.33;;
3006;SDS011;1513;47.650;10.720;2023-09-12T05:18:34;20.03;;;11.77;;
3006;SDS011;1513;47.650;10.720;2023-09-12T05:21:01;16.53;;;11.27;;
3006;SDS011;1513;47.650;10.720;2023-09-12T05:23:28;18.40;;;11.83;;
3006;SDS011;1513;47.650;10.720;2023-09-12T05:25:54;24.67;;;12.90;;
3006;SDS011;1513;47.650;10.720;2023-09-12T05:28:20;22.33;;;13.37;;
3006;SDS011;1513;47.650;10.720;2023-09-12T05:30:49;17.70;;;11.17;;
3006;SDS011;1513;47.650;10.720;2023-09-12T05:33:15;19.40;;;12.50;;
3006;SDS011;1513;47.650;10.720;2023-09-12T05:35:42;18.27;;;11.60;;
3006;SDS011;1513;47.650;10.720;2023-09-12T05:38:10;15.30;;;10.30;;
3006;SDS011;1513;47.650;10.720;2023-09-12T05:40:36;18.57;;;11.57;;
3006;SDS011;1513;47.650;10.720;2023-09-12T05:43:03;15.90;;;11.17;;
3006;SDS011;1513;47.650;10.720;2023-09-12T05:45:29;15.43;;;10.73;;
3006;SDS011;1513;47.650;10.720;2023-09-12T05:47:58;17.10;;;11.33;;
3006;SDS011;1513;47.650;10.720;2023-09-12T05:50:26;19.60;;;10.97;;
3006;SDS011;1513;47.650;10.720;2023-09-12T05:52:52;12.47;;;10.60;;
3006;SDS011;1513;47.650;10.720;2023-09-12T05:55:19;13.03;;;9.67;;
3006;SDS011;1513;47.650;10.720;2023-09-12T05:57:45;12.57;;;9.93;;
3006;SDS011;1513;47.650;10.720;2023-09-12T06:00:13;14.27;;;9.20;;
3006;SDS011;1513;47.650;10.720;2023-09-12T06:02:41;11.10;;;9.93;;
3006;SDS011;1513;47.650;10.720;2023-09-12T06:05:08;12.60;;;9.33;;
3006;SDS011;1513;47.650;10.720;2023-09-12T06:07:34;9.83;;;8.70;;
3006;SDS011;1513;47.650;10.720;2023-09-12T06:10:01;10.10;;;9.10;;
3006;SDS011;1513;47.650;10.720;2023-09-12T06:12:28;10.43;;;8.13;;
3006;SDS011;1513;47.650;10.720;2023-09-12T06:14:55;9.80;;;8.20;;
3006;SDS011;1513;47.650;10.720;2023-09-12T06:17:21;9.70;;;8.20;;
3006;SDS011;1513;47.650;10.720;2023-09-12T06:19:47;9.30;;;8.43;;
3006;SDS011;1513;47.650;10.720;2023-09-12T06:22:17;8.77;;;7.90;;
3006;SDS011;1513;47.650;10.720;2023-09-12T06:24:45;9.63;;;8.63;;
3006;SDS011;1513;47.650;10.720;2023-09-12T06:27:11;9.30;;;8.40;;
3006;SDS011;1513;47.650;10.720;2023-09-12T06:29:44;9.50;;;8.60;;
3006;SDS011;1513;47.650;10.720;2023-09-12T06:32:13;9.20;;;8.40;;
3006;SDS011;1513;47.650;10.720;2023-09-12T06:34:40;9.18;;;8.27;;
3006;SDS011;1513;47.650;10.720;2023-09-12T06:37:07;9.90;;;8.40;;
3006;SDS011;1513;47.650;10.720;2023-09-12T06:39:34;8.52;;;7.82;;
3006;SDS011;1513;47.650;10.720;2023-09-12T06:42:00;9.60;;;8.70;;
3006;SDS011;1513;47.650;10.720;2023-09-12T06:44:27;8.98;;;8.15;;
3006;SDS011;1513;47.650;10.720;2023-09-12T06:46:53;8.98;;;8.07;;
3006;SDS011;1513;47.650;10.720;2023-09-12T06:49:20;9.60;;;8.63;;
3006;SDS011;1513;47.650;10.720;2023-09-12T06:51:46;10.73;;;7.88;;
3006;SDS011;1513;47.650;10.720;2023-09-12T06:54:12;9.10;;;8.30;;
3006;SDS011;1513;47.650;10.720;2023-09-12T06:56:40;9.30;;;8.50;;
3006;SDS011;1513;47.650;10.720;2023-09-12T06:59:08;9.40;;;8.45;;
3006;SDS011;1513;47.650;10.720;2023-09-12T07:01:34;10.00;;;8.15;;
3006;SDS011;1513;47.650;10.720;2023-09-12T07:04:01;10.05;;;8.48;;
3006;SDS011;1513;47.650;10.720;2023-09-12T07:06:28;8.13;;;7.43;;
3006;SDS011;1513;47.650;10.720;2023-09-12T07:08:54;9.60;;;8.30;;
3006;SDS011;1513;47.650;10.720;2023-09-12T07:11:21;10.25;;;8.68;;
3006;SDS011;1513;47.650;10.720;2023-09-12T07:13:49;10.70;;;8.27;;
3006;SDS011;1513;47.650;10.720;2023-09-12T07:16:16;13.52;;;7.72;;
3006;SDS011;1513;47.650;10.720;2023-09-12T07:18:42;9.13;;;7.90;;
3006;SDS011;1513;47.650;10.720;2023-09-12T07:21:09;8.23;;;7.50;;
3006;SDS011;1513;47.650;10.720;2023-09-12T07:23:36;8.63;;;7.72;;
3006;SDS011;1513;47.650;10.720;2023-09-12T07:26:03;8.73;;;7.50;;
3006;SDS011;1513;47.650;10.720;2023-09-12T07:28:30;7.85;;;7.05;;
3006;SDS011;1513;47.650;10.720;2023-09-12T07:30:57;7.32;;;6.78;;
3006;SDS011;1513;47.650;10.720;2023-09-12T07:33:23;7.10;;;6.47;;
3006;SDS011;1513;47.650;10.720;2023-09-12T07:35:53;8.23;;;6.95;;
3006;SDS011;1513;47.650;10.720;2023-09-12T07:38:20;8.68;;;7.82;;
3006;SDS011;1513;47.650;10.720;2023-09-12T07:40:47;11.10;;;8.05;;
3006;SDS011;1513;47.650;10.720;2023-09-12T07:43:13;8.57;;;7.78;;
3006;SDS011;1513;47.650;10.720;2023-09-12T07:45:40;8.25;;;7.45;;
3006;SDS011;1513;47.650;10.720;2023-09-12T07:48:07;10.15;;;7.57;;
3006;SDS011;1513;47.650;10.720;2023-09-12T07:50:34;9.75;;;7.53;;
3006;SDS011;1513;47.650;10.720;2023-09-12T07:53:04;8.27;;;7.57;;
3006;SDS011;1513;47.650;10.720;2023-09-12T07:55:31;8.02;;;7.43;;
3006;SDS011;1513;47.650;10.720;2023-09-12T07:58:02;10.00;;;7.68;;
3006;SDS011;1513;47.650;10.720;2023-09-12T08:00:28;8.18;;;7.43;;
3006;SDS011;1513;47.650;10.720;2023-09-12T08:02:55;8.52;;;7.63;;
3006;SDS011;1513;47.650;10.720;2023-09-12T08:05:21;8.25;;;7.45;;
3006;SDS011;1513;47.650;10.720;2023-09-12T08:07:47;8.45;;;7.75;;
3006;SDS011;1513;47.650;10.720;2023-09-12T08:10:14;8.05;;;7.25;;
3006;SDS011;1513;47.650;10.720;2023-09-12T08:12:40;10.23;;;7.55;;
3006;SDS011;1513;47.650;10.720;2023-09-12T08:15:07;10.45;;;8.45;;
3006;SDS011;1513;47.650;10.720;2023-09-12T08:17:33;9.55;;;8.65;;
3006;SDS011;1513;47.650;10.720;2023-09-12T08:20:00;9.05;;;8.25;;
3006;SDS011;1513;47.650;10.720;2023-09-12T08:22:26;8.90;;;8.10;;
3006;SDS011;1513;47.650;10.720;2023-09-12T08:24:52;8.48;;;7.70;;
3006;SDS011;1513;47.650;10.720;2023-09-12T08:27:19;9.60;;;8.63;;
3006;SDS011;1513;47.650;10.720;2023-09-12T08:29:45;12.75;;;8.27;;
3006;SDS011;1513;47.650;10.720;2023-09-12T08:32:13;12.27;;;8.07;;
3006;SDS011;1513;47.650;10.720;2023-09-12T08:34:39;11.13;;;8.75;;
3006;SDS011;1513;47.650;10.720;2023-09-12T08:37:06;8.32;;;7.60;;
3006;SDS011;1513;47.650;10.720;2023-09-12T08:39:45;9.70;;;7.95;;
3006;SDS011;1513;47.650;10.720;2023-09-12T08:42:13;11.20;;;8.77;;
3006;SDS011;1513;47.650;10.720;2023-09-12T08:44:40;11.90;;;9.37;;
3006;SDS011;1513;47.650;10.720;2023-09-12T08:47:08;9.77;;;8.30;;
3006;SDS011;1513;47.650;10.720;2023-09-12T08:49:37;9.87;;;8.87;;
3006;SDS011;1513;47.650;10.720;2023-09-12T08:52:04;12.43;;;8.93;;
3006;SDS011;1513;47.650;10.720;2023-09-12T08:54:34;10.37;;;9.37;;
3006;SDS011;1513;47.650;10.720;2023-09-12T08:57:04;11.63;;;8.67;;
3006;SDS011;1513;47.650;10.720;2023-09-12T08:59:32;14.00;;;10.20;;
3006;SDS011;1513;47.650;10.720;2023-09-12T09:02:00;12.87;;;10.00;;
3006;SDS011;1513;47.650;10.720;2023-09-12T09:08:33;12.17;;;9.47;;
3006;SDS011;1513;47.650;10.720;2023-09-12T09:11:00;11.10;;;9.57;;
3006;SDS011;1513;47.650;10.720;2023-09-12T09:13:34;18.20;;;14.10;;
3006;SDS011;1513;47.650;10.720;2023-09-12T09:16:19;14.20;;;9.67;;
3006;SDS011;1513;47.650;10.720;2023-09-12T09:18:50;14.03;;;10.50;;
3006;SDS011;1513;47.650;10.720;2023-09-12T09:21:30;12.70;;;9.70;;
3006;SDS011;1513;47.650;10.720;2023-09-12T09:23:58;10.37;;;8.80;;
3006;SDS011;1513;47.650;10.720;2023-09-12T09:26:29;12.97;;;10.53;;
3006;SDS011;1513;47.650;10.720;2023-09-12T09:29:13;11.67;;;9.50;;
3006;SDS011;1513;47.650;10.720;2023-09-12T09:31:41;10.03;;;9.03;;
3006;SDS011;1513;47.650;10.720;2023-09-12T09:34:18;10.07;;;9.07;;
3006;SDS011;1513;47.650;10.720;2023-09-12T09:36:47;9.30;;;8.40;;
3006;SDS011;1513;47.650;10.720;2023-09-12T09:39:15;9.67;;;8.70;;
3006;SDS011;1513;47.650;10.720;2023-09-12T09:41:49;10.90;;;8.53;;
3006;SDS011;1513;47.650;10.720;2023-09-12T09:44:17;9.13;;;7.90;;
3006;SDS011;1513;47.650;10.720;2023-09-12T09:46:44;10.60;;;8.90;;
3006;SDS011;1513;47.650;10.720;2023-09-12T09:49:14;13.60;;;9.50;;
3006;SDS011;1513;47.650;10.720;2023-09-12T09:51:41;11.97;;;8.80;;
3006;SDS011;1513;47.650;10.720;2023-09-12T09:54:08;9.90;;;8.60;;
3006;SDS011;1513;47.650;10.720;2023-09-12T09:57:08;10.67;;;8.50;;
3006;SDS011;1513;47.650;10.720;2023-09-12T09:59:28;10.60;;;8.67;;
3006;SDS011;1513;47.650;10.720;2023-09-12T10:01:55;12.13;;;8.90;;
3006;SDS011;1513;47.650;10.720;2023-09-12T10:04:23;10.27;;;8.57;;
3006;SDS011;1513;47.650;10.720;2023-09-12T10:06:52;9.43;;;8.47;;
3006;SDS011;1513;47.650;10.720;2023-09-12T10:09:25;13.53;;;8.60;;
3006;SDS011;1513;47.650;10.720;2023-09-12T10:11:52;10.53;;;8.30;;
3006;SDS011;1513;47.650;10.720;2023-09-12T10:14:21;9.77;;;8.77;;
3006;SDS011;1513;47.650;10.720;2023-09-12T10:16:49;14.50;;;8.63;;
3006;SDS011;1513;47.650;10.720;2023-09-12T10:22:06;9.70;;;8.40;;
3006;SDS011;1513;47.650;10.720;2023-09-12T10:24:53;13.40;;;8.83;;
3006;SDS011;1513;47.650;10.720;2023-09-12T10:27:20;10.03;;;9.00;;
3006;SDS011;1513;47.650;10.720;2023-09-12T10:29:48;8.93;;;8.03;;
3006;SDS011;1513;47.650;10.720;2023-09-12T10:32:18;12.10;;;10.07;;
3006;SDS011;1513;47.650;10.720;2023-09-12T10:34:46;12.63;;;10.90;;
3006;SDS011;1513;47.650;10.720;2023-09-12T10:37:15;12.00;;;10.70;;
3006;SDS011;1513;47.650;10.720;2023-09-12T10:39:43;12.70;;;10.60;;
3006;SDS011;1513;47.650;10.720;2023-09-12T10:42:09;11.90;;;10.23;;
3006;SDS011;1513;47.650;10.720;2023-09-12T10:44:43;12.03;;;9.90;;
3006;SDS011;1513;47.650;10.720;2023-09-12T10:47:10;11.20;;;9.37;;
3006;SDS011;1513;47.650;10.720;2023-09-12T10:49:39;10.60;;;9.50;;
3006;SDS011;1513;47.650;10.720;2023-09-12T10:52:08;10.87;;;9.10;;
3006;SDS011;1513;47.650;10.720;2023-09-12T10:54:38;12.83;;;10.07;;
3006;SDS011;1513;47.650;10.720;2023-09-12T10:57:05;11.70;;;10.50;;
3006;SDS011;1513;47.650;10.720;2023-09-12T10:59:33;15.70;;;9.70;;
3006;SDS011;1513;47.650;10.720;2023-09-12T11:02:48;11.37;;;9.60;;
3006;SDS011;1513;47.650;10.720;2023-09-12T11:04:52;11.10;;;8.80;;
3006;SDS011;1513;47.650;10.720;2023-09-12T11:12:44;12.97;;;9.50;;
3006;SDS011;1513;47.650;10.720;2023-09-12T11:15:11;14.23;;;8.60;;
3006;SDS011;1513;47.650;10.720;2023-09-12T11:17:39;8.50;;;7.60;;
3006;SDS011;1513;47.650;10.720;2023-09-12T11:20:09;9.90;;;8.33;;
3006;SDS011;1513;47.650;10.720;2023-09-12T11:22:36;12.53;;;8.50;;
3006;SDS011;1513;47.650;10.720;2023-09-12T11:25:23;10.30;;;8.53;;
3006;SDS011;1513;47.650;10.720;2023-09-12T11:30:26;10.80;;;8.60;;
3006;SDS011;1513;47.650;10.720;2023-09-12T11:32:56;9.40;;;7.83;;
3006;SDS011;1513;47.650;10.720;2023-09-12T11:35:24;11.23;;;9.30;;
3006;SDS011;1513;47.650;10.720;2023-09-12T11:37:55;10.80;;;9.30;;
3006;SDS011;1513;47.650;10.720;2023-09-12T11:42:59;12.43;;;9.13;;
3006;SDS011;1513;47.650;10.720;2023-09-12T11:45:28;11.40;;;9.17;;
3006;SDS011;1513;47.650;10.720;2023-09-12T11:47:55;9.37;;;8.13;;
3006;SDS011;1513;47.650;10.720;2023-09-12T11:53:05;10.10;;;9.13;;
3006;SDS011;1513;47.650;10.720;2023-09-12T11:55:48;12.27;;;9.87;;
3006;SDS011;1513;47.650;10.720;2023-09-12T11:58:17;10.23;;;9.03;;
3006;SDS011;1513;47.650;10.720;2023-09-12T12:00:48;9.83;;;8.47;;
3006;SDS011;1513;47.650;10.720;2023-09-12T12:03:22;10.10;;;8.93;;
3006;SDS011;1513;47.650;10.720;2023-09-12T12:05:49;11.63;;;9.00;;
3006;SDS011;1513;47.650;10.720;2023-09-12T12:08:16;9.37;;;8.30;;
3006;SDS011;1513;47.650;10.720;2023-09-12T12:10:43;12.23;;;8.83;;
3006;SDS011;1513;47.650;10.720;2023-09-12T12:13:18;12.87;;;9.20;;
3006;SDS011;1513;47.650;10.720;2023-09-12T12:15:45;10.47;;;9.37;;
3006;SDS011;1513;47.650;10.720;2023-09-12T12:18:12;13.57;;;9.50;;
3006;SDS011;1513;47.650;10.720;2023-09-12T12:20:39;12.30;;;9.20;;
3006;SDS011;1513;47.650;10.720;2023-09-12T12:23:05;12.40;;;9.77;;
3006;SDS011;1513;47.650;10.720;2023-09-12T12:25:32;14.93;;;8.90;;
3006;SDS011;1513;47.650;10.720;2023-09-12T12:28:00;10.00;;;9.00;;
3006;SDS011;1513;47.650;10.720;2023-09-12T12:30:30;10.47;;;9.30;;
3006;SDS011;1513;47.650;10.720;2023-09-12T12:32:59;11.10;;;9.10;;
3006;SDS011;1513;47.650;10.720;2023-09-12T12:35:28;9.70;;;8.77;;
3006;SDS011;1513;47.650;10.720;2023-09-12T12:37:54;12.03;;;8.80;;
3006;SDS011;1513;47.650;10.720;2023-09-12T12:40:22;10.20;;;9.20;;
3006;SDS011;1513;47.650;10.720;2023-09-12T12:42:48;12.83;;;9.50;;
3006;SDS011;1513;47.650;10.720;2023-09-12T12:45:15;10.90;;;9.53;;
3006;SDS011;1513;47.650;10.720;2023-09-12T12:47:43;10.70;;;9.40;;
3006;SDS011;1513;47.650;10.720;2023-09-12T12:50:15;11.07;;;9.83;;
3006;SDS011;1513;47.650;10.720;2023-09-12T12:52:47;9.53;;;8.30;;
3006;SDS011;1513;47.650;10.720;2023-09-12T12:55:14;10.57;;;9.47;;
3006;SDS011;1513;47.650;10.720;2023-09-12T12:57:42;9.57;;;8.57;;
3006;SDS011;1513;47.650;10.720;2023-09-12T13:00:10;12.63;;;9.40;;
3006;SDS011;1513;47.650;10.720;2023-09-12T13:02:39;12.30;;;9.00;;
3006;SDS011;1513;47.650;10.720;2023-09-12T13:05:07;11.37;;;9.17;;
3006;SDS011;1513;47.650;10.720;2023-09-12T13:07:55;12.60;;;8.77;;
3006;SDS011;1513;47.650;10.720;2023-09-12T13:10:22;13.83;;;10.07;;
3006;SDS011;1513;47.650;10.720;2023-09-12T13:12:49;10.80;;;9.20;;
3006;SDS011;1513;47.650;10.720;2023-09-12T13:15:16;10.90;;;9.80;;
3006;SDS011;1513;47.650;10.720;2023-09-12T13:17:43;11.80;;;10.10;;
3006;SDS011;1513;47.650;10.720;2023-09-12T13:20:10;11.70;;;9.40;;
3006;SDS011;1513;47.650;10.720;2023-09-12T13:22:37;11.30;;;9.97;;
3006;SDS011;1513;47.650;10.720;2023-09-12T13:25:04;11.03;;;9.27;;
3006;SDS011;1513;47.650;10.720;2023-09-12T13:27:31;9.90;;;8.90;;
3006;SDS011;1513;47.650;10.720;2023-09-12T13:29:58;10.63;;;9.37;;
3006;SDS011;1513;47.650;10.720;2023-09-12T13:32:25;10.53;;;9.30;;
3006;SDS011;1513;47.650;10.720;2023-09-12T13:34:52;11.90;;;9.60;;
3006;SDS011;1513;47.650;10.720;2023-09-12T13:37:18;13.43;;;9.97;;
3006;SDS011;1513;47.650;10.720;2023-09-12T13:39:46;11.00;;;9.50;;
3006;SDS011;1513;47.650;10.720;2023-09-12T13:42:14;10.43;;;9.30;;
3006;SDS011;1513;47.650;10.720;2023-09-12T13:44:45;11.60;;;9.50;;
3006;SDS011;1513;47.650;10.720;2023-09-12T13:47:14;14.20;;;9.43;;
3006;SDS011;1513;47.650;10.720;2023-09-12T13:49:47;13.50;;;9.03;;
3006;SDS011;1513;47.650;10.720;2023-09-12T13:52:14;13.40;;;9.20;;
3006;SDS011;1513;47.650;10.720;2023-09-12T13:54:40;18.30;;;9.73;;
3006;SDS011;1513;47.650;10.720;2023-09-12T13:57:07;11.57;;;9.87;;
3006;SDS011;1513;47.650;10.720;2023-09-12T13:59:33;11.50;;;9.90;;
3006;SDS011;1513;47.650;10.720;2023-09-12T14:01:59;11.90;;;9.40;;
3006;SDS011;1513;47.650;10.720;2023-09-12T14:04:26;12.73;;;9.50;;
3006;SDS011;1513;47.650;10.720;2023-09-12T14:06:52;17.30;;;9.97;;
3006;SDS011;1513;47.650;10.720;2023-09-12T14:09:18;13.70;;;9.53;;
3006;SDS011;1513;47.650;10.720;2023-09-12T14:11:45;13.20;;;9.17;;
3006;SDS011;1513;47.650;10.720;2023-09-12T14:14:12;9.53;;;8.53;;
3006;SDS011;1513;47.650;10.720;2023-09-12T14:16:39;17.93;;;9.03;;
3006;SDS011;1513;47.650;10.720;2023-09-12T14:19:05;12.90;;;9.37;;
3006;SDS011;1513;47.650;10.720;2023-09-12T14:21:32;13.43;;;10.13;;
3006;SDS011;1513;47.650;10.720;2023-09-12T14:23:58;10.77;;;8.67;;
3006;SDS011;1513;47.650;10.720;2023-09-12T14:26:25;11.97;;;9.13;;
3006;SDS011;1513;47.650;10.720;2023-09-12T14:28:51;11.57;;;9.27;;
3006;SDS011;1513;47.650;10.720;2023-09-12T14:31:18;10.40;;;9.30;;
3006;SDS011;1513;47.650;10.720;2023-09-12T14:33:44;11.57;;;9.40;;
3006;SDS011;1513;47.650;10.720;2023-09-12T14:36:10;10.67;;;9.50;;
3006;SDS011;1513;47.650;10.720;2023-09-12T14:38:37;9.80;;;8.80;;
3006;SDS011;1513;47.650;10.720;2023-09-12T14:41:03;11.50;;;10.07;;
3006;SDS011;1513;47.650;10.720;2023-09-12T14:43:30;10.07;;;8.40;;
3006;SDS011;1513;47.650;10.720;2023-09-12T14:45:56;12.43;;;9.50;;
3006;SDS011;1513;47.650;10.720;2023-09-12T14:48:22;11.63;;;9.67;;
3006;SDS011;1513;47.650;10.720;2023-09-12T14:50:49;12.80;;;8.67;;
3006;SDS011;1513;47.650;10.720;2023-09-12T14:53:16;9.43;;;8.30;;
3006;SDS011;1513;47.650;10.720;2023-09-12T14:55:42;12.00;;;8.90;;
3006;SDS011;1513;47.650;10.720;2023-09-12T14:58:09;14.00;;;9.77;;
3006;SDS011;1513;47.650;10.720;2023-09-12T15:00:36;11.10;;;9.33;;
3006;SDS011;1513;47.650;10.720;2023-09-12T15:03:03;10.73;;;8.87;;
3006;SDS011;1513;47.650;10.720;2023-09-12T15:05:30;13.20;;;9.13;;
3006;SDS011;1513;47.650;10.720;2023-09-12T15:07:56;10.03;;;8.97;;
3006;SDS011;1513;47.650;10.720;2023-09-12T15:10:23;11.10;;;8.93;;
3006;SDS011;1513;47.650;10.720;2023-09-12T15:12:49;14.50;;;9.50;;
3006;SDS011;1513;47.650;10.720;2023-09-12T15:15:16;12.87;;;8.87;;